sensor_id;sensor_type;location;lat;lon;timestamp;P1;durP1;ratioP1;P2;durP2;ratioP2
28766;SDS011;15921;52.034;20.650;2023-09-19T00:00:42;18.65;;;13.07;;
28766;SDS011;15921;52.034;20.650;2023-09-19T00:03:09;20.88;;;13.85;;
28766;SDS011;15921;52.034;20.650;2023-09-19T00:05:37;21.13;;;14.20;;
28766;SDS011;15921;52.034;20.650;2023-09-19T00:08:03;24.25;;;15.38;;
28766;SDS011;15921;52.034;20.650;2023-09-19T00:10:30;18.55;;;13.88;;
28766;SDS011;15921;52.034;20.650;2023-09-19T00:13:00;25.27;;;14.98;;
28766;SDS011;15921;52.034;20.650;2023-09-19T00:15:31;23.90;;;14.25;;
28766;SDS011;15921;52.034;20.650;2023-09-19T00:18:05;22.63;;;15.23;;
28766;SDS011;15921;52.034;20.650;2023-09-19T00:20:31;23.75;;;14.55;;
28766;SDS011;15921;52.034;20.650;2023-09-19T00:23:00;27.52;;;15.00;;
28766;SDS011;15921;52.034;20.650;2023-09-19T00:25:33;20.60;;;13.52;;
28766;SDS011;15921;52.034;20.650;2023-09-19T00:28:00;21.27;;;14.52;;
28766;SDS011;15921;52.034;20.650;2023-09-19T00:30:26;23.80;;;14.10;;
28766;SDS011;15921;52.034;20.650;2023-09-19T00:32:52;18.35;;;13.38;;
28766;SDS011;15921;52.034;20.650;2023-09-19T00:35:18;18.65;;;12.93;;
28766;SDS011;15921;52.034;20.650;2023-09-19T00:37:48;22.63;;;13.43;;
28766;SDS011;15921;52.034;20.650;2023-09-19T00:40:15;20.55;;;14.32;;
28766;SDS011;15921;52.034;20.650;2023-09-19T00:42:46;21.63;;;14.60;;
28766;SDS011;15921;52.034;20.650;2023-09-19T00:45:13;17.55;;;13.27;;
28766;SDS011;15921;52.034;20.650;2023-09-19T00:47:49;17.83;;;13.65;;
28766;SDS011;15921;52.034;20.650;2023-09-19T00:50:20;18.17;;;14.07;;
28766;SDS011;15921;52.034;20.650;2023-09-19T00:52:48;21.48;;;13.23;;
28766;SDS011;15921;52.034;20.650;2023-09-19T00:55:17;20.23;;;14.27;;
28766;SDS011;15921;52.034;20.650;2023-09-19T00:57:45;20.45;;;13.60;;
28766;SDS011;15921;52.034;20.650;2023-09-19T01:00:12;22.70;;;14.30;;
28766;SDS011;15921;52.034;20.650;2023-09-19T01:02:41;20.30;;;14.25;;
28766;SDS011;15921;52.034;20.650;2023-09-19T01:05:08;19.40;;;13.80;;
28766;SDS011;15921;52.034;20.650;2023-09-19T01:07:35;22.15;;;15.27;;
28766;SDS011;15921;52.034;20.650;2023-09-19T01:10:03;18.58;;;13.05;;
28766;SDS011;15921;52.034;20.650;2023-09-19T01:12:45;22.42;;;14.68;;
28766;SDS011;15921;52.034;20.650;2023-09-19T01:20:53;20.67;;;14.85;;
28766;SDS011;15921;52.034;20.650;2023-09-19T01:23:34;17.80;;;14.05;;
28766;SDS011;15921;52.034;20.650;2023-09-19T01:32:04;19.27;;;13.90;;
28766;SDS011;15921;52.034;20.650;2023-09-19T01:34:47;22.98;;;14.98;;
28766;SDS011;15921;52.034;20.650;2023-09-19T01:37:18;20.58;;;14.63;;
28766;SDS011;15921;52.034;20.650;2023-09-19T01:39:51;22.38;;;14.35;;
28766;SDS011;15921;52.034;20.650;2023-09-19T01:42:34;19.80;;;14.23;;
28766;SDS011;15921;52.034;20.650;2023-09-19T01:45:25;19.92;;;13.27;;
28766;SDS011;15921;52.034;20.650;2023-09-19T01:48:05;19.70;;;14.05;;
28766;SDS011;15921;52.034;20.650;2023-09-19T01:50:42;22.85;;;14.73;;
28766;SDS011;15921;52.034;20.650;2023-09-19T01:53:24;22.08;;;14.43;;
28766;SDS011;15921;52.034;20.650;2023-09-19T01:55:58;23.10;;;13.73;;
28766;SDS011;15921;52.034;20.650;2023-09-19T01:58:33;21.65;;;14.85;;
28766;SDS011;15921;52.034;20.650;2023-09-19T02:01:00;18.92;;;14.10;;
28766;SDS011;15921;52.034;20.650;2023-09-19T02:03:26;19.92;;;14.63;;
28766;SDS011;15921;52.034;20.650;2023-09-19T02:05:54;20.52;;;14.30;;
28766;SDS011;15921;52.034;20.650;2023-09-19T02:08:20;21.05;;;13.95;;
28766;SDS011;15921;52.034;20.650;2023-09-19T02:10:50;18.95;;;13.50;;
28766;SDS011;15921;52.034;20.650;2023-09-19T02:13:19;19.33;;;13.65;;
28766;SDS011;15921;52.034;20.650;2023-09-19T02:15:46;19.30;;;14.68;;
28766;SDS011;15921;52.034;20.650;2023-09-19T02:18:12;20.08;;;13.07;;
28766;SDS011;15921;52.034;20.650;2023-09-19T02:20:41;21.23;;;14.77;;
28766;SDS011;15921;52.034;20.650;2023-09-19T02:23:07;19.90;;;14.57;;
28766;SDS011;15921;52.034;20.650;2023-09-19T02:25:33;17.92;;;13.73;;
28766;SDS011;15921;52.034;20.650;2023-09-19T02:28:00;19.65;;;13.90;;
28766;SDS011;15921;52.034;20.650;2023-09-19T02:30:28;19.77;;;13.25;;
28766;SDS011;15921;52.034;20.650;2023-09-19T02:32:55;20.52;;;14.48;;
28766;SDS011;15921;52.034;20.650;2023-09-19T02:35:20;19.35;;;13.93;;
28766;SDS011;15921;52.034;20.650;2023-09-19T02:37:47;22.27;;;15.13;;
28766;SDS011;15921;52.034;20.650;2023-09-19T02:40:13;27.63;;;14.95;;
28766;SDS011;15921;52.034;20.650;2023-09-19T02:42:48;24.27;;;14.63;;
28766;SDS011;15921;52.034;20.650;2023-09-19T02:45:17;28.85;;;14.68;;
28766;SDS011;15921;52.034;20.650;2023-09-19T02:47:47;23.92;;;14.23;;
28766;SDS011;15921;52.034;20.650;2023-09-19T02:50:13;25.88;;;15.95;;
28766;SDS011;15921;52.034;20.650;2023-09-19T02:52:43;22.88;;;14.52;;
28766;SDS011;15921;52.034;20.650;2023-09-19T02:55:10;23.77;;;14.63;;
28766;SDS011;15921;52.034;20.650;2023-09-19T02:57:39;20.50;;;14.68;;
28766;SDS011;15921;52.034;20.650;2023-09-19T03:00:08;19.95;;;13.15;;
28766;SDS011;15921;52.034;20.650;2023-09-19T03:02:35;18.95;;;13.25;;
28766;SDS011;15921;52.034;20.650;2023-09-19T03:05:02;22.30;;;15.35;;
28766;SDS011;15921;52.034;20.650;2023-09-19T03:07:29;20.45;;;14.00;;
28766;SDS011;15921;52.034;20.650;2023-09-19T03:09:55;17.85;;;13.50;;
28766;SDS011;15921;52.034;20.650;2023-09-19T03:12:20;19.95;;;14.13;;
28766;SDS011;15921;52.034;20.650;2023-09-19T03:14:46;22.08;;;14.57;;
28766;SDS011;15921;52.034;20.650;2023-09-19T03:17:13;22.08;;;14.27;;
28766;SDS011;15921;52.034;20.650;2023-09-19T03:19:39;19.45;;;15.05;;
28766;SDS011;15921;52.034;20.650;2023-09-19T03:22:05;21.00;;;14.00;;
28766;SDS011;15921;52.034;20.650;2023-09-19T03:24:32;25.52;;;14.68;;
28766;SDS011;15921;52.034;20.650;2023-09-19T03:26:58;22.48;;;15.20;;
28766;SDS011;15921;52.034;20.650;2023-09-19T03:29:24;20.92;;;14.43;;
28766;SDS011;15921;52.034;20.650;2023-09-19T03:31:50;19.20;;;13.90;;
28766;SDS011;15921;52.034;20.650;2023-09-19T03:34:16;21.52;;;14.25;;
28766;SDS011;15921;52.034;20.650;2023-09-19T03:36:42;19.83;;;13.90;;
28766;SDS011;15921;52.034;20.650;2023-09-19T03:39:08;19.80;;;14.13;;
28766;SDS011;15921;52.034;20.650;2023-09-19T03:41:34;18.35;;;13.55;;
28766;SDS011;15921;52.034;20.650;2023-09-19T03:44:01;21.95;;;14.15;;
28766;SDS011;15921;52.034;20.650;2023-09-19T03:46:28;19.00;;;14.05;;
28766;SDS011;15921;52.034;20.650;2023-09-19T03:48:54;19.48;;;14.00;;
28766;SDS011;15921;52.034;20.650;2023-09-19T03:51:20;19.02;;;13.88;;
28766;SDS011;15921;52.034;20.650;2023-09-19T03:53:45;20.80;;;14.55;;
28766;SDS011;15921;52.034;20.650;2023-09-19T03:56:11;20.10;;;13.48;;
28766;SDS011;15921;52.034;20.650;2023-09-19T03:58:37;24.52;;;14.00;;
28766;SDS011;15921;52.034;20.650;2023-09-19T04:01:04;20.80;;;13.93;;
28766;SDS011;15921;52.034;20.650;2023-09-19T04:03:32;21.58;;;13.57;;
28766;SDS011;15921;52.034;20.650;2023-09-19T04:06:15;19.08;;;13.65;;
28766;SDS011;15921;52.034;20.650;2023-09-19T04:08:41;20.13;;;13.13;;
28766;SDS011;15921;52.034;20.650;2023-09-19T04:11:08;21.23;;;14.40;;
28766;SDS011;15921;52.034;20.650;2023-09-19T04:13:34;23.88;;;14.18;;
28766;SDS011;15921;52.034;20.650;2023-09-19T04:16:00;19.15;;;13.70;;
28766;SDS011;15921;52.034;20.650;2023-09-19T04:18:26;20.42;;;12.43;;
28766;SDS011;15921;52.034;20.650;2023-09-19T04:20:52;22.17;;;13.82;;
28766;SDS011;15921;52.034;20.650;2023-09-19T04:23:17;20.05;;;13.40;;
28766;SDS011;15921;52.034;20.650;2023-09-19T04:25:46;22.08;;;14.20;;
28766;SDS011;15921;52.034;20.650;2023-09-19T04:28:13;20.25;;;13.95;;
28766;SDS011;15921;52.034;20.650;2023-09-19T04:30:39;19.52;;;13.57;;
28766;SDS011;15921;52.034;20.650;2023-09-19T04:33:07;21.15;;;12.98;;
28766;SDS011;15921;52.034;20.650;2023-09-19T04:35:34;18.00;;;13.27;;
28766;SDS011;15921;52.034;20.650;2023-09-19T04:38:00;22.98;;;13.52;;
28766;SDS011;15921;52.034;20.650;2023-09-19T04:40:28;19.75;;;13.93;;
28766;SDS011;15921;52.034;20.650;2023-09-19T04:42:55;21.17;;;13.70;;
28766;SDS011;15921;52.034;20.650;2023-09-19T04:45:24;24.35;;;13.63;;
28766;SDS011;15921;52.034;20.650;2023-09-19T04:47:51;22.17;;;13.85;;
28766;SDS011;15921;52.034;20.650;2023-09-19T04:50:17;22.13;;;13.32;;
28766;SDS011;15921;52.034;20.650;2023-09-19T04:52:44;23.30;;;14.23;;
28766;SDS011;15921;52.034;20.650;2023-09-19T04:55:13;18.80;;;14.18;;
28766;SDS011;15921;52.034;20.650;2023-09-19T04:57:43;19.08;;;13.00;;
28766;SDS011;15921;52.034;20.650;2023-09-19T05:00:11;18.88;;;13.65;;
28766;SDS011;15921;52.034;20.650;2023-09-19T05:02:39;18.50;;;12.98;;
28766;SDS011;15921;52.034;20.650;2023-09-19T05:05:06;22.10;;;13.85;;
28766;SDS011;15921;52.034;20.650;2023-09-19T05:07:36;21.70;;;12.80;;
28766;SDS011;15921;52.034;20.650;2023-09-19T05:10:02;20.52;;;13.07;;
28766;SDS011;15921;52.034;20.650;2023-09-19T05:12:31;21.88;;;13.18;;
28766;SDS011;15921;52.034;20.650;2023-09-19T05:14:59;17.88;;;12.70;;
28766;SDS011;15921;52.034;20.650;2023-09-19T05:17:25;20.13;;;13.50;;
28766;SDS011;15921;52.034;20.650;2023-09-19T05:19:50;17.88;;;11.85;;
28766;SDS011;15921;52.034;20.650;2023-09-19T05:22:17;18.67;;;12.68;;
28766;SDS011;15921;52.034;20.650;2023-09-19T05:24:43;20.05;;;12.98;;
28766;SDS011;15921;52.034;20.650;2023-09-19T05:27:12;37.72;;;12.82;;
28766;SDS011;15921;52.034;20.650;2023-09-19T05:29:38;25.60;;;12.70;;
28766;SDS011;15921;52.034;20.650;2023-09-19T05:32:04;27.05;;;11.82;;
28766;SDS011;15921;52.034;20.650;2023-09-19T05:34:30;20.77;;;11.20;;
28766;SDS011;15921;52.034;20.650;2023-09-19T05:36:56;20.63;;;12.40;;
28766;SDS011;15921;52.034;20.650;2023-09-19T05:39:21;23.45;;;12.50;;
28766;SDS011;15921;52.034;20.650;2023-09-19T05:41:48;23.08;;;12.02;;
28766;SDS011;15921;52.034;20.650;2023-09-19T05:44:13;28.52;;;11.60;;
28766;SDS011;15921;52.034;20.650;2023-09-19T05:46:39;46.13;;;13.07;;
28766;SDS011;15921;52.034;20.650;2023-09-19T05:49:05;25.13;;;11.85;;
28766;SDS011;15921;52.034;20.650;2023-09-19T05:51:31;22.00;;;11.40;;
28766;SDS011;15921;52.034;20.650;2023-09-19T05:53:56;16.17;;;11.77;;
28766;SDS011;15921;52.034;20.650;2023-09-19T05:56:22;24.08;;;13.90;;
28766;SDS011;15921;52.034;20.650;2023-09-19T05:58:48;21.80;;;14.00;;
28766;SDS011;15921;52.034;20.650;2023-09-19T06:01:16;20.65;;;12.18;;
28766;SDS011;15921;52.034;20.650;2023-09-19T06:03:43;18.65;;;12.02;;
28766;SDS011;15921;52.034;20.650;2023-09-19T06:06:08;21.75;;;11.43;;
28766;SDS011;15921;52.034;20.650;2023-09-19T06:08:34;19.95;;;11.82;;
28766;SDS011;15921;52.034;20.650;2023-09-19T06:11:00;17.02;;;11.20;;
28766;SDS011;15921;52.034;20.650;2023-09-19T06:13:29;21.65;;;10.80;;
28766;SDS011;15921;52.034;20.650;2023-09-19T06:15:55;16.05;;;10.82;;
28766;SDS011;15921;52.034;20.650;2023-09-19T06:18:21;16.85;;;10.25;;
28766;SDS011;15921;52.034;20.650;2023-09-19T06:20:51;22.80;;;11.32;;
28766;SDS011;15921;52.034;20.650;2023-09-19T06:23:17;13.38;;;10.88;;
28766;SDS011;15921;52.034;20.650;2023-09-19T06:25:45;20.67;;;11.88;;
28766;SDS011;15921;52.034;20.650;2023-09-19T06:28:11;18.20;;;12.45;;
28766;SDS011;15921;52.034;20.650;2023-09-19T06:30:39;16.15;;;11.43;;
28766;SDS011;15921;52.034;20.650;2023-09-19T06:33:05;15.65;;;11.65;;
28766;SDS011;15921;52.034;20.650;2023-09-19T06:35:32;16.85;;;10.02;;
28766;SDS011;15921;52.034;20.650;2023-09-19T06:37:59;18.15;;;11.75;;
28766;SDS011;15921;52.034;20.650;2023-09-19T06:40:28;20.63;;;11.00;;
28766;SDS011;15921;52.034;20.650;2023-09-19T06:42:56;16.77;;;11.70;;
28766;SDS011;15921;52.034;20.650;2023-09-19T06:45:22;17.40;;;11.00;;
28766;SDS011;15921;52.034;20.650;2023-09-19T06:47:50;14.65;;;11.48;;
28766;SDS011;15921;52.034;20.650;2023-09-19T06:50:21;18.52;;;11.20;;
28766;SDS011;15921;52.034;20.650;2023-09-19T06:52:50;18.35;;;10.95;;
28766;SDS011;15921;52.034;20.650;2023-09-19T06:55:19;16.90;;;11.75;;
28766;SDS011;15921;52.034;20.650;2023-09-19T06:57:46;19.17;;;12.38;;
28766;SDS011;15921;52.034;20.650;2023-09-19T07:00:12;22.67;;;12.25;;
28766;SDS011;15921;52.034;20.650;2023-09-19T07:03:02;23.02;;;12.93;;
28766;SDS011;15921;52.034;20.650;2023-09-19T07:05:33;17.83;;;12.20;;
28766;SDS011;15921;52.034;20.650;2023-09-19T07:08:02;20.85;;;13.38;;
28766;SDS011;15921;52.034;20.650;2023-09-19T07:10:29;20.15;;;13.32;;
28766;SDS011;15921;52.034;20.650;2023-09-19T07:12:56;19.25;;;13.93;;
28766;SDS011;15921;52.034;20.650;2023-09-19T07:15:29;22.08;;;13.68;;
28766;SDS011;15921;52.034;20.650;2023-09-19T07:18:00;19.38;;;13.68;;
28766;SDS011;15921;52.034;20.650;2023-09-19T07:20:26;17.95;;;13.02;;
28766;SDS011;15921;52.034;20.650;2023-09-19T07:22:53;23.02;;;12.85;;
28766;SDS011;15921;52.034;20.650;2023-09-19T07:25:24;21.38;;;14.15;;
28766;SDS011;15921;52.034;20.650;2023-09-19T07:27:51;21.35;;;13.73;;
28766;SDS011;15921;52.034;20.650;2023-09-19T07:30:16;17.80;;;13.43;;
28766;SDS011;15921;52.034;20.650;2023-09-19T07:32:42;20.23;;;13.02;;
28766;SDS011;15921;52.034;20.650;2023-09-19T07:35:08;21.67;;;12.43;;
28766;SDS011;15921;52.034;20.650;2023-09-19T07:37:33;18.83;;;13.88;;
28766;SDS011;15921;52.034;20.650;2023-09-19T07:40:00;22.73;;;12.15;;
28766;SDS011;15921;52.034;20.650;2023-09-19T07:42:44;24.48;;;12.73;;
28766;SDS011;15921;52.034;20.650;2023-09-19T07:45:12;18.83;;;11.95;;
28766;SDS011;15921;52.034;20.650;2023-09-19T07:47:48;21.58;;;13.88;;
28766;SDS011;15921;52.034;20.650;2023-09-19T07:50:18;21.45;;;13.15;;
28766;SDS011;15921;52.034;20.650;2023-09-19T07:52:45;20.67;;;13.88;;
28766;SDS011;15921;52.034;20.650;2023-09-19T07:55:16;21.63;;;12.88;;
28766;SDS011;15921;52.034;20.650;2023-09-19T07:57:45;19.98;;;14.40;;
28766;SDS011;15921;52.034;20.650;2023-09-19T08:00:11;19.75;;;13.75;;
28766;SDS011;15921;52.034;20.650;2023-09-19T08:02:38;18.77;;;13.32;;
28766;SDS011;15921;52.034;20.650;2023-09-19T08:05:08;25.88;;;13.93;;
28766;SDS011;15921;52.034;20.650;2023-09-19T08:07:38;20.27;;;13.43;;
28766;SDS011;15921;52.034;20.650;2023-09-19T08:10:05;20.80;;;12.25;;
28766;SDS011;15921;52.034;20.650;2023-09-19T08:12:42;20.20;;;11.75;;
28766;SDS011;15921;52.034;20.650;2023-09-19T08:15:18;21.45;;;12.77;;
28766;SDS011;15921;52.034;20.650;2023-09-19T08:17:45;14.98;;;11.23;;
28766;SDS011;15921;52.034;20.650;2023-09-19T08:20:11;23.38;;;12.75;;
28766;SDS011;15921;52.034;20.650;2023-09-19T08:22:47;18.27;;;10.18;;
28766;SDS011;15921;52.034;20.650;2023-09-19T08:25:20;16.67;;;11.80;;
28766;SDS011;15921;52.034;20.650;2023-09-19T08:27:47;17.83;;;11.30;;
28766;SDS011;15921;52.034;20.650;2023-09-19T08:30:15;17.67;;;11.35;;
28766;SDS011;15921;52.034;20.650;2023-09-19T08:32:41;22.05;;;11.18;;
28766;SDS011;15921;52.034;20.650;2023-09-19T08:35:11;18.10;;;10.77;;
28766;SDS011;15921;52.034;20.650;2023-09-19T08:37:37;19.00;;;11.38;;
28766;SDS011;15921;52.034;20.650;2023-09-19T08:40:03;16.70;;;11.07;;
28766;SDS011;15921;52.034;20.650;2023-09-19T08:42:31;29.65;;;13.73;;
28766;SDS011;15921;52.034;20.650;2023-09-19T08:44:57;23.45;;;13.05;;
28766;SDS011;15921;52.034;20.650;2023-09-19T08:47:30;24.10;;;14.82;;
28766;SDS011;15921;52.034;20.650;2023-09-19T08:52:43;20.98;;;13.27;;
28766;SDS011;15921;52.034;20.650;2023-09-19T08:55:11;22.55;;;14.82;;
28766;SDS011;15921;52.034;20.650;2023-09-19T08:57:47;26.02;;;13.90;;
28766;SDS011;15921;52.034;20.650;2023-09-19T09:00:16;24.33;;;13.68;;
28766;SDS011;15921;52.034;20.650;2023-09-19T09:02:47;20.53;;;12.63;;
28766;SDS011;15921;52.034;20.650;2023-09-19T09:05:14;16.90;;;12.05;;
28766;SDS011;15921;52.034;20.650;2023-09-19T09:07:47;16.67;;;8.50;;
28766;SDS011;15921;52.034;20.650;2023-09-19T09:10:17;12.35;;;6.85;;
28766;SDS011;15921;52.034;20.650;2023-09-19T09:12:52;8.63;;;4.60;;
28766;SDS011;15921;52.034;20.650;2023-09-19T09:15:24;8.88;;;5.00;;
28766;SDS011;15921;52.034;20.650;2023-09-19T09:17:50;11.00;;;4.53;;
28766;SDS011;15921;52.034;20.650;2023-09-19T09:20:20;10.90;;;5.03;;
28766;SDS011;15921;52.034;20.650;2023-09-19T09:22:52;9.18;;;4.85;;
28766;SDS011;15921;52.034;20.650;2023-09-19T09:25:19;9.07;;;5.15;;
28766;SDS011;15921;52.034;20.650;2023-09-19T09:28:09;10.55;;;6.05;;
28766;SDS011;15921;52.034;20.650;2023-09-19T09:30:34;14.82;;;7.93;;
28766;SDS011;15921;52.034;20.650;2023-09-19T09:33:11;9.10;;;5.45;;
28766;SDS011;15921;52.034;20.650;2023-09-19T09:35:54;8.77;;;5.60;;
28766;SDS011;15921;52.034;20.650;2023-09-19T09:38:25;18.33;;;10.20;;
28766;SDS011;15921;52.034;20.650;2023-09-19T09:40:55;12.35;;;7.35;;
28766;SDS011;15921;52.034;20.650;2023-09-19T09:43:32;10.05;;;6.15;;
28766;SDS011;15921;52.034;20.650;2023-09-19T09:46:06;11.73;;;6.68;;
28766;SDS011;15921;52.034;20.650;2023-09-19T09:51:40;10.90;;;4.88;;
28766;SDS011;15921;52.034;20.650;2023-09-19T09:54:26;9.15;;;5.55;;
28766;SDS011;15921;52.034;20.650;2023-09-19T09:57:00;9.23;;;6.55;;
28766;SDS011;15921;52.034;20.650;2023-09-19T10:02:27;11.07;;;6.10;;
28766;SDS011;15921;52.034;20.650;2023-09-19T10:05:15;9.27;;;6.03;;
28766;SDS011;15921;52.034;20.650;2023-09-19T10:07:45;9.35;;;5.65;;
28766;SDS011;15921;52.034;20.650;2023-09-19T10:10:37;10.23;;;5.82;;
28766;SDS011;15921;52.034;20.650;2023-09-19T10:13:23;6.78;;;4.85;;
28766;SDS011;15921;52.034;20.650;2023-09-19T10:15:54;6.80;;;4.90;;
28766;SDS011;15921;52.034;20.650;2023-09-19T10:18:24;8.18;;;5.45;;
28766;SDS011;15921;52.034;20.650;2023-09-19T10:20:53;7.07;;;4.53;;
28766;SDS011;15921;52.034;20.650;2023-09-19T10:23:20;8.45;;;5.18;;
28766;SDS011;15921;52.034;20.650;2023-09-19T10:25:51;8.30;;;4.60;;
28766;SDS011;15921;52.034;20.650;2023-09-19T10:28:17;9.48;;;4.68;;
28766;SDS011;15921;52.034;20.650;2023-09-19T10:30:48;7.57;;;4.00;;
28766;SDS011;15921;52.034;20.650;2023-09-19T10:33:19;6.18;;;3.65;;
28766;SDS011;15921;52.034;20.650;2023-09-19T10:35:48;5.93;;;3.70;;
28766;SDS011;15921;52.034;20.650;2023-09-19T10:38:19;5.70;;;3.42;;
28766;SDS011;15921;52.034;20.650;2023-09-19T10:40:52;5.22;;;3.00;;
28766;SDS011;15921;52.034;20.650;2023-09-19T10:43:20;6.90;;;3.85;;
28766;SDS011;15921;52.034;20.650;2023-09-19T10:45:50;11.48;;;4.25;;
28766;SDS011;15921;52.034;20.650;2023-09-19T10:48:17;9.45;;;4.00;;
28766;SDS011;15921;52.034;20.650;2023-09-19T10:53:41;5.45;;;3.55;;
28766;SDS011;15921;52.034;20.650;2023-09-19T10:56:22;5.35;;;3.58;;
28766;SDS011;15921;52.034;20.650;2023-09-19T10:59:04;7.07;;;3.90;;
28766;SDS011;15921;52.034;20.650;2023-09-19T11:01:51;5.15;;;3.58;;
28766;SDS011;15921;52.034;20.650;2023-09-19T11:07:07;7.00;;;4.10;;
28766;SDS011;15921;52.034;20.650;2023-09-19T11:09:55;7.88;;;4.28;;
28766;SDS011;15921;52.034;20.650;2023-09-19T11:15:06;8.18;;;4.30;;
28766;SDS011;15921;52.034;20.650;2023-09-19T11:17:39;9.20;;;5.03;;
28766;SDS011;15921;52.034;20.650;2023-09-19T11:30:38;8.05;;;4.10;;
28766;SDS011;15921;52.034;20.650;2023-09-19T11:36:04;6.90;;;4.32;;
28766;SDS011;15921;52.034;20.650;2023-09-19T11:43:47;8.32;;;4.32;;
28766;SDS011;15921;52.034;20.650;2023-09-19T11:46:15;11.13;;;4.53;;
28766;SDS011;15921;52.034;20.650;2023-09-19T11:48:47;7.65;;;4.60;;
28766;SDS011;15921;52.034;20.650;2023-09-19T11:53:56;7.18;;;3.92;;
28766;SDS011;15921;52.034;20.650;2023-09-19T11:56:26;7.50;;;4.47;;
28766;SDS011;15921;52.034;20.650;2023-09-19T11:58:56;6.07;;;3.80;;
28766;SDS011;15921;52.034;20.650;2023-09-19T12:01:24;6.72;;;3.88;;
28766;SDS011;15921;52.034;20.650;2023-09-19T12:03:58;10.00;;;4.72;;
28766;SDS011;15921;52.034;20.650;2023-09-19T12:06:25;8.52;;;4.35;;
28766;SDS011;15921;52.034;20.650;2023-09-19T12:08:52;5.53;;;3.80;;
28766;SDS011;15921;52.034;20.650;2023-09-19T12:11:28;7.38;;;4.40;;
28766;SDS011;15921;52.034;20.650;2023-09-19T12:14:01;12.02;;;4.57;;
28766;SDS011;15921;52.034;20.650;2023-09-19T12:16:27;8.75;;;4.47;;
28766;SDS011;15921;52.034;20.650;2023-09-19T12:18:56;7.85;;;4.63;;
28766;SDS011;15921;52.034;20.650;2023-09-19T12:21:27;7.70;;;5.10;;
28766;SDS011;15921;52.034;20.650;2023-09-19T12:24:06;8.48;;;5.45;;
28766;SDS011;15921;52.034;20.650;2023-09-19T12:26:44;11.48;;;5.70;;
28766;SDS011;15921;52.034;20.650;2023-09-19T12:29:19;11.88;;;5.75;;
28766;SDS011;15921;52.034;20.650;2023-09-19T12:31:56;12.25;;;6.50;;
28766;SDS011;15921;52.034;20.650;2023-09-19T12:34:26;9.15;;;5.53;;
28766;SDS011;15921;52.034;20.650;2023-09-19T12:39:44;11.20;;;6.53;;
28766;SDS011;15921;52.034;20.650;2023-09-19T12:42:14;8.65;;;6.00;;
28766;SDS011;15921;52.034;20.650;2023-09-19T12:44:42;9.30;;;5.93;;
28766;SDS011;15921;52.034;20.650;2023-09-19T12:47:12;8.75;;;6.00;;
28766;SDS011;15921;52.034;20.650;2023-09-19T12:52:44;11.68;;;5.50;;
28766;SDS011;15921;52.034;20.650;2023-09-19T12:55:21;8.02;;;6.20;;
28766;SDS011;15921;52.034;20.650;2023-09-19T13:00:36;10.55;;;6.13;;
28766;SDS011;15921;52.034;20.650;2023-09-19T13:05:50;18.33;;;6.45;;
28766;SDS011;15921;52.034;20.650;2023-09-19T13:08:26;10.32;;;7.00;;
28766;SDS011;15921;52.034;20.650;2023-09-19T13:11:15;10.93;;;6.72;;
28766;SDS011;15921;52.034;20.650;2023-09-19T13:13:48;11.00;;;6.97;;
28766;SDS011;15921;52.034;20.650;2023-09-19T13:16:20;11.48;;;6.50;;
28766;SDS011;15921;52.034;20.650;2023-09-19T13:18:51;9.43;;;6.30;;
28766;SDS011;15921;52.034;20.650;2023-09-19T13:24:17;15.35;;;7.22;;
28766;SDS011;15921;52.034;20.650;2023-09-19T13:26:48;10.80;;;7.72;;
28766;SDS011;15921;52.034;20.650;2023-09-19T13:29:13;12.65;;;7.57;;
28766;SDS011;15921;52.034;20.650;2023-09-19T13:31:45;9.75;;;6.55;;
28766;SDS011;15921;52.034;20.650;2023-09-19T13:34:11;9.63;;;6.30;;
28766;SDS011;15921;52.034;20.650;2023-09-19T13:36:39;11.70;;;7.50;;
28766;SDS011;15921;52.034;20.650;2023-09-19T13:39:04;12.18;;;8.13;;
28766;SDS011;15921;52.034;20.650;2023-09-19T13:41:32;11.07;;;7.68;;
28766;SDS011;15921;52.034;20.650;2023-09-19T13:43:57;13.93;;;7.75;;
28766;SDS011;15921;52.034;20.650;2023-09-19T13:46:23;12.90;;;7.75;;
28766;SDS011;15921;52.034;20.650;2023-09-19T13:48:51;12.40;;;7.55;;
28766;SDS011;15921;52.034;20.650;2023-09-19T13:51:20;12.50;;;7.40;;
28766;SDS011;15921;52.034;20.650;2023-09-19T13:53:48;11.35;;;7.00;;
28766;SDS011;15921;52.034;20.650;2023-09-19T13:56:15;12.85;;;7.07;;
28766;SDS011;15921;52.034;20.650;2023-09-19T13:58:41;10.45;;;5.90;;
28766;SDS011;15921;52.034;20.650;2023-09-19T14:01:07;12.32;;;6.68;;
28766;SDS011;15921;52.034;20.650;2023-09-19T14:03:37;10.20;;;5.65;;
28766;SDS011;15921;52.034;20.650;2023-09-19T14:06:04;6.88;;;5.30;;
28766;SDS011;15921;52.034;20.650;2023-09-19T14:08:30;10.20;;;5.30;;
28766;SDS011;15921;52.034;20.650;2023-09-19T14:10:56;10.27;;;4.53;;
28766;SDS011;15921;52.034;20.650;2023-09-19T14:13:21;11.75;;;5.00;;
28766;SDS011;15921;52.034;20.650;2023-09-19T14:15:47;6.85;;;4.95;;
28766;SDS011;15921;52.034;20.650;2023-09-19T14:18:13;6.65;;;4.57;;
28766;SDS011;15921;52.034;20.650;2023-09-19T14:20:38;8.15;;;4.70;;
28766;SDS011;15921;52.034;20.650;2023-09-19T14:23:06;10.02;;;4.10;;
28766;SDS011;15921;52.034;20.650;2023-09-19T14:25:33;9.38;;;5.00;;
28766;SDS011;15921;52.034;20.650;2023-09-19T14:28:00;10.00;;;4.20;;
28766;SDS011;15921;52.034;20.650;2023-09-19T14:30:25;8.20;;;4.10;;
28766;SDS011;15921;52.034;20.650;2023-09-19T14:32:52;6.85;;;4.18;;
28766;SDS011;15921;52.034;20.650;2023-09-19T14:35:18;8.20;;;4.18;;
28766;SDS011;15921;52.034;20.650;2023-09-19T14:37:44;7.00;;;4.40;;
28766;SDS011;15921;52.034;20.650;2023-09-19T14:40:10;9.05;;;5.05;;
28766;SDS011;15921;52.034;20.650;2023-09-19T14:42:38;7.45;;;4.65;;
28766;SDS011;15921;52.034;20.650;2023-09-19T14:45:05;10.85;;;4.35;;
28766;SDS011;15921;52.034;20.650;2023-09-19T14:47:31;10.10;;;4.13;;
28766;SDS011;15921;52.034;20.650;2023-09-19T14:49:59;7.22;;;3.90;;
28766;SDS011;15921;52.034;20.650;2023-09-19T14:52:26;7.82;;;4.20;;
28766;SDS011;15921;52.034;20.650;2023-09-19T14:54:53;5.85;;;3.92;;
28766;SDS011;15921;52.034;20.650;2023-09-19T14:57:19;8.60;;;3.60;;
28766;SDS011;15921;52.034;20.650;2023-09-19T14:59:45;7.68;;;3.80;;
28766;SDS011;15921;52.034;20.650;2023-09-19T15:02:11;14.50;;;3.97;;
28766;SDS011;15921;52.034;20.650;2023-09-19T15:04:37;5.10;;;3.35;;
28766;SDS011;15921;52.034;20.650;2023-09-19T15:07:05;5.15;;;3.05;;
28766;SDS011;15921;52.034;20.650;2023-09-19T15:09:31;6.82;;;3.58;;
28766;SDS011;15921;52.034;20.650;2023-09-19T15:11:58;6.00;;;2.70;;
28766;SDS011;15921;52.034;20.650;2023-09-19T15:14:24;4.93;;;2.50;;
28766;SDS011;15921;52.034;20.650;2023-09-19T15:16:50;4.05;;;2.70;;
28766;SDS011;15921;52.034;20.650;2023-09-19T15:19:16;6.10;;;3.28;;
28766;SDS011;15921;52.034;20.650;2023-09-19T15:21:42;7.70;;;2.40;;
28766;SDS011;15921;52.034;20.650;2023-09-19T15:24:09;5.13;;;3.17;;
28766;SDS011;15921;52.034;20.650;2023-09-19T15:26:35;7.32;;;2.53;;
28766;SDS011;15921;52.034;20.650;2023-09-19T15:29:07;10.15;;;2.55;;
28766;SDS011;15921;52.034;20.650;2023-09-19T15:31:34;6.90;;;2.28;;